sensor_id;sensor_type;location;lat;lon;timestamp;temperature;humidity
33881;DHT22;20172;47.530;10.256;2024-01-15T00:00:44;3.80;99.90
33881;DHT22;20172;47.530;10.256;2024-01-15T00:03:14;3.80;99.90
33881;DHT22;20172;47.530;10.256;2024-01-15T00:05:52;3.80;99.90
33881;DHT22;20172;47.530;10.256;2024-01-15T00:08:33;3.80;99.90
33881;DHT22;20172;47.530;10.256;2024-01-15T00:11:12;3.80;99.90
33881;DHT22;20172;47.530;10.256;2024-01-15T00:13:38;3.70;99.90
33881;DHT22;20172;47.530;10.256;2024-01-15T00:16:08;3.80;99.90
33881;DHT22;20172;47.530;10.256;2024-01-15T00:18:36;3.80;99.90
33881;DHT22;20172;47.530;10.256;2024-01-15T00:21:03;3.80;99.90
33881;DHT22;20172;47.530;10.256;2024-01-15T00:23:30;3.80;99.90
33881;DHT22;20172;47.530;10.256;2024-01-15T00:25:56;3.80;99.90
33881;DHT22;20172;47.530;10.256;2024-01-15T00:28:23;3.90;99.90
33881;DHT22;20172;47.530;10.256;2024-01-15T00:30:51;3.90;99.90
33881;DHT22;20172;47.530;10.256;2024-01-15T00:33:18;3.90;99.90
33881;DHT22;20172;47.530;10.256;2024-01-15T00:35:50;3.90;99.90
33881;DHT22;20172;47.530;10.256;2024-01-15T00:38:21;3.80;99.90
33881;DHT22;20172;47.530;10.256;2024-01-15T00:40:47;3.70;99.90
33881;DHT22;20172;47.530;10.256;2024-01-15T00:43:15;3.70;99.90
33881;DHT22;20172;47.530;10.256;2024-01-15T00:45:45;3.70;99.90
33881;DHT22;20172;47.530;10.256;2024-01-15T00:48:18;3.70;99.90
33881;DHT22;20172;47.530;10.256;2024-01-15T00:50:44;3.70;99.90
33881;DHT22;20172;47.530;10.256;2024-01-15T00:53:12;3.70;99.90
33881;DHT22;20172;47.530;10.256;2024-01-15T00:55:37;3.80;99.90
33881;DHT22;20172;47.530;10.256;2024-01-15T00:58:05;3.80;99.90
33881;DHT22;20172;47.530;10.256;2024-01-15T01:00:49;3.90;99.90
33881;DHT22;20172;47.530;10.256;2024-01-15T01:03:14;3.90;99.90
33881;DHT22;20172;47.530;10.256;2024-01-15T01:05:41;3.90;99.90
33881;DHT22;20172;47.530;10.256;2024-01-15T01:08:28;3.70;99.90
33881;DHT22;20172;47.530;10.256;2024-01-15T01:10:55;3.80;99.90
33881;DHT22;20172;47.530;10.256;2024-01-15T01:13:21;3.80;99.90
33881;DHT22;20172;47.530;10.256;2024-01-15T01:16:11;3.80;99.90
33881;DHT22;20172;47.530;10.256;2024-01-15T01:18:38;3.80;99.90
33881;DHT22;20172;47.530;10.256;2024-01-15T01:21:29;3.80;99.90
33881;DHT22;20172;47.530;10.256;2024-01-15T01:23:58;3.80;99.90
33881;DHT22;20172;47.530;10.256;2024-01-15T01:26:23;3.80;99.90
33881;DHT22;20172;47.530;10.256;2024-01-15T01:28:50;3.80;99.90
33881;DHT22;20172;47.530;10.256;2024-01-15T01:31:17;3.80;99.90
33881;DHT22;20172;47.530;10.256;2024-01-15T01:33:50;3.80;99.90
33881;DHT22;20172;47.530;10.256;2024-01-15T01:36:21;3.90;99.90
33881;DHT22;20172;47.530;10.256;2024-01-15T01:39:18;3.80;99.90
33881;DHT22;20172;47.530;10.256;2024-01-15T01:41:43;3.80;99.90
33881;DHT22;20172;47.530;10.256;2024-01-15T01:44:14;3.80;99.90
33881;DHT22;20172;47.530;10.256;2024-01-15T01:46:45;3.80;99.90
33881;DHT22;20172;47.530;10.256;2024-01-15T01:49:33;3.80;99.90
33881;DHT22;20172;47.530;10.256;2024-01-15T01:52:20;3.80;99.90
33881;DHT22;20172;47.530;10.256;2024-01-15T01:54:59;3.90;99.90
33881;DHT22;20172;47.530;10.256;2024-01-15T01:57:27;3.90;99.90
33881;DHT22;20172;47.530;10.256;2024-01-15T01:59:56;3.90;99.90
33881;DHT22;20172;47.530;10.256;2024-01-15T02:02:46;4.00;99.90
33881;DHT22;20172;47.530;10.256;2024-01-15T02:05:45;4.00;99.90
33881;DHT22;20172;47.530;10.256;2024-01-15T02:08:23;4.00;99.90
33881;DHT22;20172;47.530;10.256;2024-01-15T02:10:50;4.10;99.90
33881;DHT22;20172;47.530;10.256;2024-01-15T02:13:21;4.10;99.90
33881;DHT22;20172;47.530;10.256;2024-01-15T02:15:53;3.90;99.90
33881;DHT22;20172;47.530;10.256;2024-01-15T02:18:29;4.00;99.90
33881;DHT22;20172;47.530;10.256;2024-01-15T02:21:09;4.10;99.90
33881;DHT22;20172;47.530;10.256;2024-01-15T02:23:37;4.10;99.90
33881;DHT22;20172;47.530;10.256;2024-01-15T02:26:33;4.20;99.90
33881;DHT22;20172;47.530;10.256;2024-01-15T02:29:28;4.30;99.90
33881;DHT22;20172;47.530;10.256;2024-01-15T02:32:29;4.30;99.90
33881;DHT22;20172;47.530;10.256;2024-01-15T02:34:56;4.30;99.90
33881;DHT22;20172;47.530;10.256;2024-01-15T02:37:44;4.30;99.90
33881;DHT22;20172;47.530;10.256;2024-01-15T02:40:10;4.30;99.90
33881;DHT22;20172;47.530;10.256;2024-01-15T02:42:39;4.20;99.90
33881;DHT22;20172;47.530;10.256;2024-01-15T02:45:47;4.20;99.90
33881;DHT22;20172;47.530;10.256;2024-01-15T02:48:13;4.30;99.90
33881;DHT22;20172;47.530;10.256;2024-01-15T02:51:17;4.20;99.90
33881;DHT22;20172;47.530;10.256;2024-01-15T02:53:48;4.20;99.90
33881;DHT22;20172;47.530;10.256;2024-01-15T02:56:47;4.20;99.90
33881;DHT22;20172;47.530;10.256;2024-01-15T02:59:16;4.30;99.90
33881;DHT22;20172;47.530;10.256;2024-01-15T03:02:03;4.30;99.90
33881;DHT22;20172;47.530;10.256;2024-01-15T03:04:50;4.40;99.90
33881;DHT22;20172;47.530;10.256;2024-01-15T03:07:44;4.40;99.90
33881;DHT22;20172;47.530;10.256;2024-01-15T03:10:19;4.40;99.90
33881;DHT22;20172;47.530;10.256;2024-01-15T03:12:59;4.30;99.90
33881;DHT22;20172;47.530;10.256;2024-01-15T03:15:31;4.30;99.90
33881;DHT22;20172;47.530;10.256;2024-01-15T03:18:19;4.30;99.90
33881;DHT22;20172;47.530;10.256;2024-01-15T03:20:49;4.20;99.90
33881;DHT22;20172;47.530;10.256;2024-01-15T03:23:19;4.10;99.90
33881;DHT22;20172;47.530;10.256;2024-01-15T03:26:06;3.90;99.90
33881;DHT22;20172;47.530;10.256;2024-01-15T03:28:33;3.70;99.90
33881;DHT22;20172;47.530;10.256;2024-01-15T03:30:58;3.50;99.90
33881;DHT22;20172;47.530;10.256;2024-01-15T03:33:26;3.40;99.90
33881;DHT22;20172;47.530;10.256;2024-01-15T03:35:53;3.30;99.90
33881;DHT22;20172;47.530;10.256;2024-01-15T03:38:29;3.30;99.90
33881;DHT22;20172;47.530;10.256;2024-01-15T03:40:56;3.30;99.90
33881;DHT22;20172;47.530;10.256;2024-01-15T03:43:23;3.40;99.90
33881;DHT22;20172;47.530;10.256;2024-01-15T03:45:53;3.40;99.90
33881;DHT22;20172;47.530;10.256;2024-01-15T03:48:19;3.30;99.90
33881;DHT22;20172;47.530;10.256;2024-01-15T03:50:45;3.20;99.90
33881;DHT22;20172;47.530;10.256;2024-01-15T03:53:16;3.30;99.90
33881;DHT22;20172;47.530;10.256;2024-01-15T03:55:42;3.20;99.90
33881;DHT22;20172;47.530;10.256;2024-01-15T03:58:10;3.30;99.90
33881;DHT22;20172;47.530;10.256;2024-01-15T04:00:38;3.30;99.90
33881;DHT22;20172;47.530;10.256;2024-01-15T04:03:08;3.20;99.90
33881;DHT22;20172;47.530;10.256;2024-01-15T04:05:36;3.20;99.90
33881;DHT22;20172;47.530;10.256;2024-01-15T04:08:05;3.20;99.90
33881;DHT22;20172;47.530;10.256;2024-01-15T04:10:32;3.20;99.90
33881;DHT22;20172;47.530;10.256;2024-01-15T04:13:01;3.20;99.90
33881;DHT22;20172;47.530;10.256;2024-01-15T04:15:28;3.10;99.90
33881;DHT22;20172;47.530;10.256;2024-01-15T04:17:56;3.10;99.90
33881;DHT22;20172;47.530;10.256;2024-01-15T04:20:22;3.20;99.90
33881;DHT22;20172;47.530;10.256;2024-01-15T04:22:50;3.20;99.90
33881;DHT22;20172;47.530;10.256;2024-01-15T04:25:17;3.30;99.90
33881;DHT22;20172;47.530;10.256;2024-01-15T04:27:44;3.30;99.90
33881;DHT22;20172;47.530;10.256;2024-01-15T04:30:20;3.40;99.90
33881;DHT22;20172;47.530;10.256;2024-01-15T04:32:50;3.30;99.90
33881;DHT22;20172;47.530;10.256;2024-01-15T04:35:18;3.30;99.90
33881;DHT22;20172;47.530;10.256;2024-01-15T04:37:44;3.40;99.90
33881;DHT22;20172;47.530;10.256;2024-01-15T04:40:12;3.40;99.90
33881;DHT22;20172;47.530;10.256;2024-01-15T04:42:40;3.40;99.90
33881;DHT22;20172;47.530;10.256;2024-01-15T04:45:12;3.40;99.90
33881;DHT22;20172;47.530;10.256;2024-01-15T04:47:55;3.40;99.90
33881;DHT22;20172;47.530;10.256;2024-01-15T04:50:23;3.30;99.90
33881;DHT22;20172;47.530;10.256;2024-01-15T04:52:51;3.30;99.90
33881;DHT22;20172;47.530;10.256;2024-01-15T04:55:21;3.30;99.90
33881;DHT22;20172;47.530;10.256;2024-01-15T04:57:47;3.20;99.90
33881;DHT22;20172;47.530;10.256;2024-01-15T05:00:13;3.20;99.90
33881;DHT22;20172;47.530;10.256;2024-01-15T05:02:42;3.20;99.90
33881;DHT22;20172;47.530;10.256;2024-01-15T05:05:09;3.20;99.90
33881;DHT22;20172;47.530;10.256;2024-01-15T05:07:38;3.20;99.90
33881;DHT22;20172;47.530;10.256;2024-01-15T05:10:06;3.20;99.90
33881;DHT22;20172;47.530;10.256;2024-01-15T05:12:34;3.10;99.90
33881;DHT22;20172;47.530;10.256;2024-01-15T05:15:00;3.00;99.90
33881;DHT22;20172;47.530;10.256;2024-01-15T05:17:26;3.00;99.90
33881;DHT22;20172;47.530;10.256;2024-01-15T05:19:51;3.00;99.90
33881;DHT22;20172;47.530;10.256;2024-01-15T05:22:17;3.00;99.90
33881;DHT22;20172;47.530;10.256;2024-01-15T05:24:43;3.00;99.90
33881;DHT22;20172;47.530;10.256;2024-01-15T05:27:08;3.00;99.90
33881;DHT22;20172;47.530;10.256;2024-01-15T05:29:34;2.90;99.90
33881;DHT22;20172;47.530;10.256;2024-01-15T05:31:59;2.90;99.90
33881;DHT22;20172;47.530;10.256;2024-01-15T05:34:29;2.90;99.90
33881;DHT22;20172;47.530;10.256;2024-01-15T05:36:59;2.90;99.90
33881;DHT22;20172;47.530;10.256;2024-01-15T05:39:25;3.00;99.90
33881;DHT22;20172;47.530;10.256;2024-01-15T05:41:50;3.00;99.90
33881;DHT22;20172;47.530;10.256;2024-01-15T05:44:16;3.00;99.90
33881;DHT22;20172;47.530;10.256;2024-01-15T05:46:41;2.90;99.90
33881;DHT22;20172;47.530;10.256;2024-01-15T05:49:07;2.80;99.90
33881;DHT22;20172;47.530;10.256;2024-01-15T05:51:32;2.80;99.90
33881;DHT22;20172;47.530;10.256;2024-01-15T05:53:58;2.70;99.90
33881;DHT22;20172;47.530;10.256;2024-01-15T05:56:23;2.50;99.90
33881;DHT22;20172;47.530;10.256;2024-01-15T05:58:49;2.40;99.90
33881;DHT22;20172;47.530;10.256;2024-01-15T06:01:18;2.40;99.90
33881;DHT22;20172;47.530;10.256;2024-01-15T06:03:43;2.40;99.90
33881;DHT22;20172;47.530;10.256;2024-01-15T06:06:09;2.40;99.90
33881;DHT22;20172;47.530;10.256;2024-01-15T06:08:34;2.30;99.90
33881;DHT22;20172;47.530;10.256;2024-01-15T06:11:00;2.20;99.90
33881;DHT22;20172;47.530;10.256;2024-01-15T06:13:26;2.20;99.90
33881;DHT22;20172;47.530;10.256;2024-01-15T06:15:51;2.20;99.90
33881;DHT22;20172;47.530;10.256;2024-01-15T06:18:16;2.30;99.90
33881;DHT22;20172;47.530;10.256;2024-01-15T06:20:42;2.40;99.90
33881;DHT22;20172;47.530;10.256;2024-01-15T06:23:08;2.40;99.90
33881;DHT22;20172;47.530;10.256;2024-01-15T06:25:33;2.40;99.90
33881;DHT22;20172;47.530;10.256;2024-01-15T06:27:59;2.30;99.90
33881;DHT22;20172;47.530;10.256;2024-01-15T06:30:25;2.30;99.90
33881;DHT22;20172;47.530;10.256;2024-01-15T06:32:50;2.40;99.90
33881;DHT22;20172;47.530;10.256;2024-01-15T06:35:16;2.50;99.90
33881;DHT22;20172;47.530;10.256;2024-01-15T06:37:41;2.50;99.90
33881;DHT22;20172;47.530;10.256;2024-01-15T06:40:07;2.60;99.90
33881;DHT22;20172;47.530;10.256;2024-01-15T06:42:33;2.60;99.90
33881;DHT22;20172;47.530;10.256;2024-01-15T06:44:58;2.60;99.90
33881;DHT22;20172;47.530;10.256;2024-01-15T06:47:24;2.60;99.90
33881;DHT22;20172;47.530;10.256;2024-01-15T06:49:49;2.70;99.90
33881;DHT22;20172;47.530;10.256;2024-01-15T06:52:17;2.70;99.90
33881;DHT22;20172;47.530;10.256;2024-01-15T06:54:42;2.70;99.90
33881;DHT22;20172;47.530;10.256;2024-01-15T06:57:08;2.70;99.90
33881;DHT22;20172;47.530;10.256;2024-01-15T06:59:34;2.70;99.90
33881;DHT22;20172;47.530;10.256;2024-01-15T07:02:00;2.70;99.90
33881;DHT22;20172;47.530;10.256;2024-01-15T07:04:26;2.70;99.90
33881;DHT22;20172;47.530;10.256;2024-01-15T07:06:51;2.70;99.90
33881;DHT22;20172;47.530;10.256;2024-01-15T07:09:17;2.70;99.90
33881;DHT22;20172;47.530;10.256;2024-01-15T07:11:46;2.60;99.90
33881;DHT22;20172;47.530;10.256;2024-01-15T07:14:12;2.60;99.90
33881;DHT22;20172;47.530;10.256;2024-01-15T07:16:37;2.60;99.90
33881;DHT22;20172;47.530;10.256;2024-01-15T07:19:03;2.60;99.90
33881;DHT22;20172;47.530;10.256;2024-01-15T07:21:28;2.70;99.90
33881;DHT22;20172;47.530;10.256;2024-01-15T07:23:55;2.70;99.90
33881;DHT22;20172;47.530;10.256;2024-01-15T07:26:20;2.70;99.90
33881;DHT22;20172;47.530;10.256;2024-01-15T07:28:46;2.70;99.90
33881;DHT22;20172;47.530;10.256;2024-01-15T07:31:12;2.70;99.90
33881;DHT22;20172;47.530;10.256;2024-01-15T07:33:37;2.70;99.90
33881;DHT22;20172;47.530;10.256;2024-01-15T07:36:03;2.70;99.90
33881;DHT22;20172;47.530;10.256;2024-01-15T07:38:28;2.70;99.90
33881;DHT22;20172;47.530;10.256;2024-01-15T07:40:54;2.60;99.90
33881;DHT22;20172;47.530;10.256;2024-01-15T07:43:20;2.60;99.90
33881;DHT22;20172;47.530;10.256;2024-01-15T07:45:46;2.60;99.90
33881;DHT22;20172;47.530;10.256;2024-01-15T07:48:11;2.60;99.90
33881;DHT22;20172;47.530;10.256;2024-01-15T07:50:37;2.60;99.90
33881;DHT22;20172;47.530;10.256;2024-01-15T07:53:02;2.60;99.90
33881;DHT22;20172;47.530;10.256;2024-01-15T07:55:31;2.60;99.90
33881;DHT22;20172;47.530;10.256;2024-01-15T07:58:00;2.60;99.90
33881;DHT22;20172;47.530;10.256;2024-01-15T08:00:26;2.60;99.90
33881;DHT22;20172;47.530;10.256;2024-01-15T08:02:52;2.50;99.90
33881;DHT22;20172;47.530;10.256;2024-01-15T08:05:18;2.50;99.90
33881;DHT22;20172;47.530;10.256;2024-01-15T08:07:44;2.50;99.90
33881;DHT22;20172;47.530;10.256;2024-01-15T08:10:09;2.60;99.90
33881;DHT22;20172;47.530;10.256;2024-01-15T08:12:35;2.60;99.90
33881;DHT22;20172;47.530;10.256;2024-01-15T08:15:00;2.60;99.90
33881;DHT22;20172;47.530;10.256;2024-01-15T08:17:25;2.60;99.90
33881;DHT22;20172;47.530;10.256;2024-01-15T08:19:57;2.60;99.90
33881;DHT22;20172;47.530;10.256;2024-01-15T08:22:25;2.60;99.90
33881;DHT22;20172;47.530;10.256;2024-01-15T08:24:50;2.60;99.90
33881;DHT22;20172;47.530;10.256;2024-01-15T08:27:17;2.60;99.90
33881;DHT22;20172;47.530;10.256;2024-01-15T08:29:42;2.60;99.90
33881;DHT22;20172;47.530;10.256;2024-01-15T08:32:08;2.60;99.90
33881;DHT22;20172;47.530;10.256;2024-01-15T08:34:39;2.60;99.90
33881;DHT22;20172;47.530;10.256;2024-01-15T08:37:04;2.60;99.90
33881;DHT22;20172;47.530;10.256;2024-01-15T08:39:30;2.60;99.90
33881;DHT22;20172;47.530;10.256;2024-01-15T08:41:55;2.60;99.90
33881;DHT22;20172;47.530;10.256;2024-01-15T08:44:21;2.60;99.90
33881;DHT22;20172;47.530;10.256;2024-01-15T08:46:46;2.60;99.90
33881;DHT22;20172;47.530;10.256;2024-01-15T08:49:12;2.60;99.90
33881;DHT22;20172;47.530;10.256;2024-01-15T08:51:39;2.60;99.90
33881;DHT22;20172;47.530;10.256;2024-01-15T08:54:05;2.60;99.90
33881;DHT22;20172;47.530;10.256;2024-01-15T08:56:31;2.60;99.90
33881;DHT22;20172;47.530;10.256;2024-01-15T08:58:56;2.70;99.90
33881;DHT22;20172;47.530;10.256;2024-01-15T09:01:22;2.70;99.90
33881;DHT22;20172;47.530;10.256;2024-01-15T09:03:48;2.70;99.90
33881;DHT22;20172;47.530;10.256;2024-01-15T09:06:14;2.70;99.90
33881;DHT22;20172;47.530;10.256;2024-01-15T09:08:39;2.70;99.90
33881;DHT22;20172;47.530;10.256;2024-01-15T09:11:05;2.70;99.90
33881;DHT22;20172;47.530;10.256;2024-01-15T09:13:30;2.70;99.90
33881;DHT22;20172;47.530;10.256;2024-01-15T09:15:56;2.70;99.90
33881;DHT22;20172;47.530;10.256;2024-01-15T09:18:22;2.70;99.90
33881;DHT22;20172;47.530;10.256;2024-01-15T09:20:56;2.70;99.90
33881;DHT22;20172;47.530;10.256;2024-01-15T09:23:23;2.70;99.90
33881;DHT22;20172;47.530;10.256;2024-01-15T09:25:49;2.70;99.90
33881;DHT22;20172;47.530;10.256;2024-01-15T09:28:15;2.80;99.90
33881;DHT22;20172;47.530;10.256;2024-01-15T09:30:40;2.80;99.90
33881;DHT22;20172;47.530;10.256;2024-01-15T09:33:06;2.80;99.90
33881;DHT22;20172;47.530;10.256;2024-01-15T09:35:31;2.80;99.90
33881;DHT22;20172;47.530;10.256;2024-01-15T09:37:57;2.80;99.90
33881;DHT22;20172;47.530;10.256;2024-01-15T09:40:22;2.80;99.90
33881;DHT22;20172;47.530;10.256;2024-01-15T09:42:48;2.80;99.90
33881;DHT22;20172;47.530;10.256;2024-01-15T09:45:15;2.90;99.90
33881;DHT22;20172;47.530;10.256;2024-01-15T09:47:43;2.80;99.90
33881;DHT22;20172;47.530;10.256;2024-01-15T09:50:09;2.80;99.90
33881;DHT22;20172;47.530;10.256;2024-01-15T09:52:34;2.80;99.90
33881;DHT22;20172;47.530;10.256;2024-01-15T09:55:03;2.90;99.90
33881;DHT22;20172;47.530;10.256;2024-01-15T09:57:30;2.90;99.90
33881;DHT22;20172;47.530;10.256;2024-01-15T09:59:56;2.90;99.90
33881;DHT22;20172;47.530;10.256;2024-01-15T10:02:22;2.90;99.90
33881;DHT22;20172;47.530;10.256;2024-01-15T10:04:48;3.00;99.90
33881;DHT22;20172;47.530;10.256;2024-01-15T10:07:15;3.00;99.90
33881;DHT22;20172;47.530;10.256;2024-01-15T10:09:41;3.00;99.90
33881;DHT22;20172;47.530;10.256;2024-01-15T10:12:07;3.10;99.90
33881;DHT22;20172;47.530;10.256;2024-01-15T10:14:35;3.10;99.90
33881;DHT22;20172;47.530;10.256;2024-01-15T10:17:05;3.10;99.90
33881;DHT22;20172;47.530;10.256;2024-01-15T10:19:36;3.10;99.90
33881;DHT22;20172;47.530;10.256;2024-01-15T10:22:02;3.20;99.90
33881;DHT22;20172;47.530;10.256;2024-01-15T10:24:28;3.20;99.90
33881;DHT22;20172;47.530;10.256;2024-01-15T10:27:04;3.20;99.90
33881;DHT22;20172;47.530;10.256;2024-01-15T10:29:29;3.10;99.90
33881;DHT22;20172;47.530;10.256;2024-01-15T10:31:55;3.20;99.90
33881;DHT22;20172;47.530;10.256;2024-01-15T10:34:24;3.30;99.90
33881;DHT22;20172;47.530;10.256;2024-01-15T10:36:50;3.50;99.90
33881;DHT22;20172;47.530;10.256;2024-01-15T10:39:23;3.90;99.90
33881;DHT22;20172;47.530;10.256;2024-01-15T10:41:49;4.50;99.90
33881;DHT22;20172;47.530;10.256;2024-01-15T10:44:16;5.00;99.90
33881;DHT22;20172;47.530;10.256;2024-01-15T10:46:42;5.30;99.90
33881;DHT22;20172;47.530;10.256;2024-01-15T10:49:08;5.60;99.90
33881;DHT22;20172;47.530;10.256;2024-01-15T10:51:34;5.90;99.90
33881;DHT22;20172;47.530;10.256;2024-01-15T10:54:00;6.10;99.90
33881;DHT22;20172;47.530;10.256;2024-01-15T10:56:27;6.10;99.90
33881;DHT22;20172;47.530;10.256;2024-01-15T10:58:52;6.00;99.90
33881;DHT22;20172;47.530;10.256;2024-01-15T11:01:19;6.10;99.90
33881;DHT22;20172;47.530;10.256;2024-01-15T11:03:45;6.20;99.90
33881;DHT22;20172;47.530;10.256;2024-01-15T11:06:21;5.80;99.90
33881;DHT22;20172;47.530;10.256;2024-01-15T11:08:49;5.30;99.90
33881;DHT22;20172;47.530;10.256;2024-01-15T11:11:17;4.90;99.90
33881;DHT22;20172;47.530;10.256;2024-01-15T11:13:43;4.60;99.90
33881;DHT22;20172;47.530;10.256;2024-01-15T11:16:13;4.60;99.90
33881;DHT22;20172;47.530;10.256;2024-01-15T11:21:23;4.70;99.90
33881;DHT22;20172;47.530;10.256;2024-01-15T11:23:54;4.80;99.90
33881;DHT22;20172;47.530;10.256;2024-01-15T11:26:28;4.90;99.90
33881;DHT22;20172;47.530;10.256;2024-01-15T11:28:54;4.80;99.90
33881;DHT22;20172;47.530;10.256;2024-01-15T11:31:20;4.80;99.90
33881;DHT22;20172;47.530;10.256;2024-01-15T11:33:51;4.70;99.90
33881;DHT22;20172;47.530;10.256;2024-01-15T11:36:17;4.60;99.90
33881;DHT22;20172;47.530;10.256;2024-01-15T11:38:42;4.60;99.90
33881;DHT22;20172;47.530;10.256;2024-01-15T11:41:14;4.50;99.90
33881;DHT22;20172;47.530;10.256;2024-01-15T11:43:42;4.50;99.90
33881;DHT22;20172;47.530;10.256;2024-01-15T11:46:11;4.60;99.90
33881;DHT22;20172;47.530;10.256;2024-01-15T11:48:42;4.50;99.90
33881;DHT22;20172;47.530;10.256;2024-01-15T11:51:08;4.40;99.90
33881;DHT22;20172;47.530;10.256;2024-01-15T11:53:43;4.40;99.90
33881;DHT22;20172;47.530;10.256;2024-01-15T11:56:19;4.20;99.90
33881;DHT22;20172;47.530;10.256;2024-01-15T11:58:47;4.10;99.90
33881;DHT22;20172;47.530;10.256;2024-01-15T12:01:12;4.10;99.90
33881;DHT22;20172;47.530;10.256;2024-01-15T12:03:38;4.00;99.90
33881;DHT22;20172;47.530;10.256;2024-01-15T12:06:07;3.80;99.90
33881;DHT22;20172;47.530;10.256;2024-01-15T12:08:34;3.80;99.90
33881;DHT22;20172;47.530;10.256;2024-01-15T12:11:00;3.70;99.90
33881;DHT22;20172;47.530;10.256;2024-01-15T12:13:26;3.70;99.90
33881;DHT22;20172;47.530;10.256;2024-01-15T12:15:54;3.70;99.90
33881;DHT22;20172;47.530;10.256;2024-01-15T12:18:25;3.50;99.90
33881;DHT22;20172;47.530;10.256;2024-01-15T12:20:53;3.40;99.90
33881;DHT22;20172;47.530;10.256;2024-01-15T12:23:20;3.50;99.90
33881;DHT22;20172;47.530;10.256;2024-01-15T12:25:46;3.40;99.90
33881;DHT22;20172;47.530;10.256;2024-01-15T12:28:15;3.40;99.90
33881;DHT22;20172;47.530;10.256;2024-01-15T12:30:40;3.30;99.90
33881;DHT22;20172;47.530;10.256;2024-01-15T12:33:07;3.20;99.90
33881;DHT22;20172;47.530;10.256;2024-01-15T12:35:33;3.10;99.90
33881;DHT22;20172;47.530;10.256;2024-01-15T12:38:02;3.00;99.90
33881;DHT22;20172;47.530;10.256;2024-01-15T12:40:27;3.10;99.90
33881;DHT22;20172;47.530;10.256;2024-01-15T12:42:53;3.10;99.90
33881;DHT22;20172;47.530;10.256;2024-01-15T12:45:19;3.10;99.90
33881;DHT22;20172;47.530;10.256;2024-01-15T12:47:44;3.10;99.90
33881;DHT22;20172;47.530;10.256;2024-01-15T12:50:12;3.10;99.90
33881;DHT22;20172;47.530;10.256;2024-01-15T12:52:38;3.00;99.90
33881;DHT22;20172;47.530;10.256;2024-01-15T12:55:05;2.90;99.90
33881;DHT22;20172;47.530;10.256;2024-01-15T12:57:31;2.80;99.90
33881;DHT22;20172;47.530;10.256;2024-01-15T12:59:56;2.50;99.90
33881;DHT22;20172;47.530;10.256;2024-01-15T13:02:22;2.40;99.90
33881;DHT22;20172;47.530;10.256;2024-01-15T13:04:48;2.40;99.90
33881;DHT22;20172;47.530;10.256;2024-01-15T13:07:13;2.30;99.90
33881;DHT22;20172;47.530;10.256;2024-01-15T13:09:39;2.30;99.90
33881;DHT22;20172;47.530;10.256;2024-01-15T13:12:04;2.30;99.90
33881;DHT22;20172;47.530;10.256;2024-01-15T13:14:31;2.30;99.90
33881;DHT22;20172;47.530;10.256;2024-01-15T13:16:56;2.30;99.90
33881;DHT22;20172;47.530;10.256;2024-01-15T13:19:23;2.30;99.90
33881;DHT22;20172;47.530;10.256;2024-01-15T13:21:49;2.30;99.90
33881;DHT22;20172;47.530;10.256;2024-01-15T13:24:19;2.40;99.90
33881;DHT22;20172;47.530;10.256;2024-01-15T13:26:45;2.60;99.90
33881;DHT22;20172;47.530;10.256;2024-01-15T13:29:11;2.70;99.90
33881;DHT22;20172;47.530;10.256;2024-01-15T13:31:36;2.90;99.90
33881;DHT22;20172;47.530;10.256;2024-01-15T13:34:01;2.90;99.90
33881;DHT22;20172;47.530;10.256;2024-01-15T13:36:28;2.80;99.90
33881;DHT22;20172;47.530;10.256;2024-01-15T13:38:54;2.80;99.90
33881;DHT22;20172;47.530;10.256;2024-01-15T13:41:20;2.70;99.90
33881;DHT22;20172;47.530;10.256;2024-01-15T13:43:50;2.70;99.90
33881;DHT22;20172;47.530;10.256;2024-01-15T13:46:16;2.80;99.90
33881;DHT22;20172;47.530;10.256;2024-01-15T13:48:42;2.80;99.90
33881;DHT22;20172;47.530;10.256;2024-01-15T13:51:08;2.60;99.90
33881;DHT22;20172;47.530;10.256;2024-01-15T13:53:33;2.70;99.90
33881;DHT22;20172;47.530;10.256;2024-01-15T13:55:59;2.60;99.90
33881;DHT22;20172;47.530;10.256;2024-01-15T13:58:27;2.70;99.90
33881;DHT22;20172;47.530;10.256;2024-01-15T14:00:53;2.80;99.90
33881;DHT22;20172;47.530;10.256;2024-01-15T14:03:18;2.90;99.90
33881;DHT22;20172;47.530;10.256;2024-01-15T14:05:44;2.90;99.90
33881;DHT22;20172;47.530;10.256;2024-01-15T14:08:10;2.90;99.90
33881;DHT22;20172;47.530;10.256;2024-01-15T14:10:35;2.90;99.90
33881;DHT22;20172;47.530;10.256;2024-01-15T14:13:03;2.90;99.90
33881;DHT22;20172;47.530;10.256;2024-01-15T14:15:29;2.80;99.90
33881;DHT22;20172;47.530;10.256;2024-01-15T14:17:58;2.70;99.90
33881;DHT22;20172;47.530;10.256;2024-01-15T14:20:25;2.50;99.90
33881;DHT22;20172;47.530;10.256;2024-01-15T14:23:01;2.50;99.90
33881;DHT22;20172;47.530;10.256;2024-01-15T14:25:27;2.50;99.90
33881;DHT22;20172;47.530;10.256;2024-01-15T14:27:52;2.50;99.90
33881;DHT22;20172;47.530;10.256;2024-01-15T14:30:18;2.70;99.90
33881;DHT22;20172;47.530;10.256;2024-01-15T14:32:43;2.70;99.90
33881;DHT22;20172;47.530;10.256;2024-01-15T14:35:10;2.70;99.90
33881;DHT22;20172;47.530;10.256;2024-01-15T14:37:39;2.60;99.90
33881;DHT22;20172;47.530;10.256;2024-01-15T14:40:05;2.60;99.90
33881;DHT22;20172;47.530;10.256;2024-01-15T14:42:33;2.50;99.90
33881;DHT22;20172;47.530;10.256;2024-01-15T14:44:58;2.40;99.90
33881;DHT22;20172;47.530;10.256;2024-01-15T14:47:24;2.40;99.90
33881;DHT22;20172;47.530;10.256;2024-01-15T14:49:49;2.20;99.90
33881;DHT22;20172;47.530;10.256;2024-01-15T14:52:15;2.10;99.90
33881;DHT22;20172;47.530;10.256;2024-01-15T14:54:41;2.10;99.90
33881;DHT22;20172;47.530;10.256;2024-01-15T14:57:06;1.90;99.90
33881;DHT22;20172;47.530;10.256;2024-01-15T14:59:32;1.80;99.90
33881;DHT22;20172;47.530;10.256;2024-01-15T15:01:57;1.80;99.90
33881;DHT22;20172;47.530;10.256;2024-01-15T15:04:23;1.70;99.90
33881;DHT22;20172;47.530;10.256;2024-01-15T15:06:49;1.70;99.90
33881;DHT22;20172;47.530;10.256;2024-01-15T15:09:15;1.80;99.90
33881;DHT22;20172;47.530;10.256;2024-01-15T15:11:43;1.80;99.90
33881;DHT22;20172;47.530;10.256;2024-01-15T15:14:09;1.80;99.90
33881;DHT22;20172;47.530;10.256;2024-01-15T15:16:34;1.80;99.90
33881;DHT22;20172;47.530;10.256;2024-01-15T15:19:00;1.90;99.90
33881;DHT22;20172;47.530;10.256;2024-01-15T15:21:25;1.90;99.90
33881;DHT22;20172;47.530;10.256;2024-01-15T15:23:52;2.00;99.90
33881;DHT22;20172;47.530;10.256;2024-01-15T15:26:17;2.00;99.90
33881;DHT22;20172;47.530;10.256;2024-01-15T15:28:43;2.00;99.90
33881;DHT22;20172;47.530;10.256;2024-01-15T15:31:08;2.00;99.90
33881;DHT22;20172;47.530;10.256;2024-01-15T15:33:36;2.10;99.90
33881;DHT22;20172;47.530;10.256;2024-01-15T15:36:02;2.10;99.90
33881;DHT22;20172;47.530;10.256;2024-01-15T15:38:31;2.10;99.90
33881;DHT22;20172;47.530;10.256;2024-01-15T15:40:57;2.10;99.90